Terminal Aerodrome Forecast
Issued by NWS

Home | Current Version | Previous Version | Text Only | Print | Product List | Glossary On
Versions: 1 2 3 4 5 6 7 8 9 10 11 12 13 14 15 16 17 18 19 20 21 22 23 24 25 26 27 28 29 30
005
FTUS42 KRAH 082339
TAFRWI
TAF
KRWI 082339Z 0900/0924 20008KT P6SM BKN070
      TEMPO 0900/0903 25015G25KT 4SM -SHRA BR SCT020 BKN025 OVC035
     FM090500 27006KT P6SM SCT050 BKN100
     FM091600 26011G18KT P6SM BKN050=

USA.gov is the U.S. government's official web portal to all federal, state and local government web resources and services.